Skip Navigation Links Skip Navigation Links

Current Weather

Cherry Capital, Traverse City, Mich.

For information only: do not use for flight planning or navigation.
Latest weather
Observation time Friday, February 28, 2020 5:29 AM EST
Local time Friday, February 28, 2020 5:51 AM EST
Flight conditions Instrument Meteorological Conditions
Winds
Wind direction West-Northwest (290°)
Wind speed 12 mph
Wind gusting to 24 mph
Visibility 2 mi.
Present weather light snow
Sky condition
Ceiling 2,100 ft. broken clouds
Cloud layer broken clouds 2,100 ft.
Cloud layer overcast 3,400 ft.
Temperature 20°F
Dewpoint 13°F
Altimeter 29.83 in.Hg
Precipitation
Precipitation last hour trace
Derived measurements
Relative humidity 74%
Wind chill 8°F
Density altitude -1916 ft.
Remarks
Fully automated report.
Automated weather observing station with precipitation discriminator.
Visibility.
METAR KTVC 281029Z AUTO 29010G21KT 2SM -SN BKN021 OVC034 M07/M11 A2983 RMK AO2 VIS 1 1/4V3 P0000 T10671106

Settings

Location code

InnerDrive.Weather 4.0.6770.0 Release CLR 4.0.30319.42000
Copyright ©2018 Inner Drive Technology. All rights reserved. Portions Copyright ©1986-2018 David Braverman.

Find weather

Site navigation


Skip Navigation Links

Place info

Page info

PayPal - The safer, easier way to pay online!

Return home.

Copyright ©2020 Inner Drive Technology. Purveyors of fine, hand-crafted computer software. Page printed 2020-02-28T10:51:29 UTC.